Airfield :
LOGIN :

Register | Disclaimer

   EN    FR    IT 

 










Legend :    VFR   Marginal VFR   IFR   Intensive IFR   Very Intensive IFR
Visi :
Ceiling :
>= 8 km
>= 3000ft
5 to 8 km
1000 to 3000 ft
1500m to 5 km
500 to 1000 ft
800 to 1500m
200 to 500 ft
< 800m
< 200 ft
Symbols :   Thunderstorms  Fog  Heavy snow  Heavy precipitations  Wind > 20 kt
SIGMETs :     Misc.  Thunderstorms  Icing  Turbulence  Mountain Waves  Volcanic Ashes






- Airport Elevation : 348 ft
- IATA code : STN


EGSS - London Stansted

CURRENT METAR :
  • 270820Z 02004KT 2200 -SN OVC003TCU 01/00 Q0996

EXPIRED METARs :
  • 270750Z AUTO 05005KT 5000 -RASN BKN003 OVC024 01/01 Q0996
  • 270720Z 08005KT 040V160 6000 -SN BKN004 OVC029 01/01 Q0996
  • 270650Z AUTO 11007KT 6000 -RA BKN004 OVC032 01/01 Q0996
  • 270620Z AUTO 11007KT 7000 -RA BKN007 BKN023 OVC032 01/01 Q0996
  • 270550Z AUTO 12006KT 5000 -RASN FEW016 SCT021 OVC028 01/00 Q0997

TAF AMD TAF EGSS
Valid from the 27 at 06:00 until the 28 at 12:00 UTC


270617Z 2706/2812 12006KT 6000 -RASN BKN008
BECMG 2706/2709 2000 RASN BR FEW001 BKN004
PROB40
TEMPO 2706/2712 0800 SN BKN001
BECMG 2709/2712 30014KT
BECMG 2712/2714 9999 NSW FEW030
TEMPO 2714/2718 31018G28KT
BECMG 2721/2724 24004KT
BECMG 2807/2810 18015G25KT BKN010
TEMPO 2810/2812 4000 RA BKN006
ATIS : +44 1279 669 325



MET'MAP, your aeronautical weather chart ! - Copyright ORBIFLY December 2007 - Disclaimer

ORBIFLY MET'MAP TEAM :

Programming & Development : Alexandra Zaïnal
Concept & original design : Baudouin d'Aumeries
Assistance for programming : Marc-Olivier Méhu
Technical & hardware support : Manuel Goepfert

Contact : metmap@orbifly.com




SOURCES & CREDITS :

   NOAA